Terminal Aerodrome Forecast
Issued by NWS

Home | Current Version | Previous Version | Text Only | Print | Product List | Glossary On
Versions: 1 2 3 4 5 6 7 8 9 10 11 12
000
FTUS44 KEPZ 232328
TAFDMN
TAF
KDMN 232328Z 2400/2424 15007KT P6SM SKC
     FM240700 27007KT P6SM SCT250
     FM241700 28018G28KT P6SM SKC
     FM241900 26024G34KT P6SM SKC
      TEMPO 2419/2423 2SM BLDU=

USA.gov is the U.S. government's official web portal to all federal, state and local government web resources and services.